Cathma — PJTL — position and weather

sailwx.info

Track history (hours):
 
Tides and Currents Weather Stations Pressure Air Temp Water Temp Dewpoint Dewpoint Depression Visibility Wind Speed Wind Dir Waves Ship Positions

Cathma

Last reported at 2015-Aug-01 22:25 UTC. Time now 2015-Aug-02 04:17 UTC.
Position N 57°34' E 017°48'.

Length 111 m; draft 6.1 m.

Type: Ship. MMSI: 306832000.

Date/timePositionNaut miles runAvg speedWind from/ knotsBaromVisibWave heightAir tempDewpointWater temp
2015-Aug-01 22:25N 57°34' E 017°48'7 8.0
2015-Aug-01 21:32N 57°27' E 017°46'8 8.0
2015-Aug-01 20:33N 57°20' E 017°41'9 8.8
2015-Aug-01 19:33N 57°11' E 017°35'9 9.1
2015-Aug-01 18:34N 57°03' E 017°29'9 8.9
2015-Aug-01 17:33N 56°55' E 017°23'125 8.9
2015-Aug-01 03:30N 55°06' E 015°36'9 9.0
2015-Aug-01 02:32N 54°58' E 015°28'9 9.0
2015-Aug-01 01:33N 54°51' E 015°19'74 8.2
2015-Jul-31 16:31N 53°42' E 014°28'8 8.5
2015-Jul-31 15:34N 53°35' E 014°36'7 6.9
2015-Jul-31 14:34N 53°29' E 014°37'4 3.6
2015-Jul-31 13:34N 53°25' E 014°35'0 0.0
2015-Jul-31 12:33N 53°25' E 014°35'0 0.0
2015-Jul-31 11:33N 53°25' E 014°35'0 0.0
2015-Jul-31 10:32N 53°25' E 014°35'0 0.0
2015-Jul-31 09:32N 53°25' E 014°35'0 0.0
2015-Jul-31 08:32N 53°25' E 014°35'0 0.0
2015-Jul-31 07:31N 53°25' E 014°35'0 0.0
2015-Jul-31 06:31N 53°25' E 014°35'0 0.0
2015-Jul-31 05:33N 53°25' E 014°35'0 0.0
2015-Jul-31 04:33N 53°25' E 014°35'0 0.0
2015-Jul-31 03:32N 53°25' E 014°35'0 0.0
2015-Jul-31 02:32N 53°25' E 014°35'0 0.0
2015-Jul-31 01:31N 53°25' E 014°35'0 0.0
2015-Jul-31 00:31N 53°25' E 014°35'0 0.0
2015-Jul-30 23:32N 53°25' E 014°35'0 0.0
2015-Jul-30 22:33N 53°25' E 014°35'0 0.0
2015-Jul-30 21:33N 53°25' E 014°35'0 0.0
2015-Jul-30 20:32N 53°25' E 014°35'0 0.0
2015-Jul-30 19:32N 53°25' E 014°35'0 0.0
2015-Jul-30 18:31N 53°25' E 014°35'0 0.0
2015-Jul-30 17:31N 53°25' E 014°35'0 0.0
2015-Jul-30 16:31N 53°25' E 014°35'0 0.0
2015-Jul-30 15:33N 53°25' E 014°35'0 0.0
2015-Jul-30 14:33N 53°25' E 014°35'0 0.0
2015-Jul-30 13:32N 53°25' E 014°35'0 0.0
2015-Jul-30 12:32N 53°25' E 014°35'0 0.0
2015-Jul-30 11:31N 53°25' E 014°35'0 0.0
2015-Jul-30 10:31N 53°25' E 014°35'0 0.0
2015-Jul-30 09:31N 53°25' E 014°35'0 0.0
2015-Jul-30 08:33N 53°25' E 014°35'0 0.0
2015-Jul-30 07:33N 53°25' E 014°35'0 0.0
2015-Jul-30 06:32N 53°25' E 014°35'0 0.0
2015-Jul-30 05:32N 53°25' E 014°35'0 0.0
2015-Jul-30 04:22N 53°25' E 014°35'0 0.0
2015-Jul-30 03:31N 53°25' E 014°35'0 0.0
2015-Jul-30 02:21N 53°25' E 014°35'0 0.0
2015-Jul-30 01:24N 53°25' E 014°35'0 0.0
2015-Jul-30 00:21N 53°25' E 014°35'0 0.0
2015-Jul-29 23:14N 53°25' E 014°35'0 0.0
2015-Jul-29 21:28N 53°25' E 014°35'0 0.0
2015-Jul-29 20:13N 53°25' E 014°35'0 0.0
2015-Jul-29 19:31N 53°25' E 014°35'0 0.0
2015-Jul-29 18:33N 53°25' E 014°35'0 0.0
2015-Jul-29 17:30N 53°25' E 014°35'0 0.0
2015-Jul-29 16:32N 53°25' E 014°35'0 0.0
2015-Jul-29 15:17N 53°25' E 014°35'0 0.0
2015-Jul-29 14:19N 53°25' E 014°35'0 0.0
2015-Jul-29 13:19N 53°25' E 014°35'0 0.0
2015-Jul-29 12:34N 53°25' E 014°35'0 0.0
2015-Jul-29 10:21N 53°25' E 014°35'0 0.0
2015-Jul-29 09:32N 53°25' E 014°35'0 0.0
2015-Jul-29 08:32N 53°25' E 014°35'0 0.0
2015-Jul-29 07:28N 53°25' E 014°35'0 0.0
2015-Jul-29 06:31N 53°25' E 014°35'0 0.0
2015-Jul-29 05:33N 53°25' E 014°35'0 0.0
2015-Jul-29 04:33N 53°25' E 014°35'0 0.0
2015-Jul-29 03:33N 53°25' E 014°35'0 0.0
2015-Jul-29 02:32N 53°25' E 014°35'0 0.0
2015-Jul-29 01:32N 53°25' E 014°35'0 0.0
2015-Jul-29 00:31N 53°25' E 014°35'0 0.0
2015-Jul-28 23:33N 53°25' E 014°35'0 0.0
2015-Jul-28 22:33N 53°25' E 014°35'0 0.0
2015-Jul-28 21:33N 53°25' E 014°35'0 0.0
2015-Jul-28 20:33N 53°25' E 014°35'0 0.0
2015-Jul-28 19:32N 53°25' E 014°35'0 0.0
2015-Jul-28 18:32N 53°25' E 014°35'0 0.2
2015-Jul-28 17:33N 53°25' E 014°35'4 4.0
2015-Jul-28 16:33N 53°29' E 014°37'9 9.0
2015-Jul-28 15:33N 53°38' E 014°35'1111.4
2015-Jul-28 14:33N 53°47' E 014°23'10210.1
2015-Jul-28 04:28N 55°14' E 012°53'910.3
2015-Jul-28 03:33N 55°18' E 012°38'1010.2
2015-Jul-28 02:34N 55°28' E 012°41'9 9.1
2015-Jul-28 01:33N 55°37' E 012°42'4 3.7
2015-Jul-28 00:33N 55°41' E 012°41'8 8.2
2015-Jul-27 23:34N 55°49' E 012°41'10 9.8
2015-Jul-27 22:33N 55°59' E 012°38'8 8.0
2015-Jul-27 21:33N 56°06' E 012°32'9 9.4
2015-Jul-27 20:33N 56°12' E 012°18'1010.1
2015-Jul-27 19:33N 56°18' E 012°03'2310.5
2015-Jul-27 17:22N 56°40' E 011°54'810.3
2015-Jul-27 16:33N 56°48' E 011°50'1110.6
2015-Jul-27 15:33N 56°58' E 011°43'1010.4
2015-Jul-27 14:33N 57°08' E 011°36'1010.2
2015-Jul-27 13:33N 57°18' E 011°31'8 8.3
2015-Jul-27 12:33N 57°26' E 011°34'1010.3
2015-Jul-27 11:33N 57°35' E 011°40'1 0.7
2015-Jul-27 10:32N 57°36' E 011°41'0 0.0
2015-Jul-27 09:32N 57°36' E 011°41'0 0.0
2015-Jul-27 08:31N 57°36' E 011°41'4 3.8
2015-Jul-27 07:33N 57°36' E 011°34'1111.4
2015-Jul-27 06:33N 57°43' E 011°17'1010.5
2015-Jul-27 05:33N 57°47' E 010°59'1010.4
2015-Jul-27 04:33N 57°47' E 010°39'38 9.5
2015-Jul-27 00:32N 57°31' E 009°34'9 8.9
2015-Jul-26 23:32N 57°27' E 009°19'250 6.8
2015-Jul-25 10:32N 54°11' E 004°44'6 5.8
2015-Jul-25 09:33N 54°05' E 004°41'7 6.8
2015-Jul-25 08:32N 53°59' E 004°37'1010.2
2015-Jul-25 07:33N 53°50' E 004°28'79 7.1
2015-Jul-24 20:31N 52°46' E 003°12'9 7.7
2015-Jul-24 19:21N 52°38' E 003°05'7 7.7
2015-Jul-24 18:24N 52°32' E 002°60'6 7.3
2015-Jul-24 17:32N 52°26' E 002°55'7 6.8
2015-Jul-24 16:33N 52°20' E 002°50'6 6.4
2015-Jul-24 15:33N 52°14' E 002°45'9 6.1
2015-Jul-24 14:08N 52°06' E 002°41'5 6.2
2015-Jul-24 13:23N 52°01' E 002°40'5 6.4
2015-Jul-24 12:31N 51°56' E 002°39'38 7.6
2015-Jul-24 07:33N 51°25' E 002°05'9 9.2
2015-Jul-24 06:33N 51°18' E 001°55'1010.0
2015-Jul-24 05:33N 51°10' E 001°45'1010.5
2015-Jul-24 04:33N 51°01' E 001°36'96 8.0
2015-Jul-23 16:33N 49°50' W 000°04'8 8.3
2015-Jul-23 15:33N 49°42' W 000°09'8 8.0
2015-Jul-23 14:33N 49°34' W 000°12'6 5.4
2015-Jul-23 13:32N 49°29' W 000°09'0 0.0
2015-Jul-23 12:31N 49°29' W 000°09'0 0.0
2015-Jul-23 11:28N 49°29' W 000°09'0 0.0
2015-Jul-23 10:33N 49°29' W 000°09'0 0.0
2015-Jul-23 09:33N 49°29' W 000°09'0 0.0
2015-Jul-23 08:32N 49°29' W 000°09'0 0.0
2015-Jul-23 07:32N 49°29' W 000°09'0 0.0
2015-Jul-23 06:32N 49°29' W 000°09'0 0.0
2015-Jul-23 05:31N 49°29' W 000°09'0 0.0
2015-Jul-23 04:28N 49°29' W 000°09'0 0.0
2015-Jul-23 03:33N 49°29' W 000°09'0 0.0
2015-Jul-23 02:33N 49°29' W 000°09'0 0.0
2015-Jul-23 01:29N 49°29' W 000°09'0 0.0
2015-Jul-23 00:32N 49°29' W 000°09'0 0.0
2015-Jul-22 23:32N 49°29' W 000°09'0 0.0
2015-Jul-22 22:31N 49°29' W 000°09'  
Track history (hours):
 
Tides and Currents Weather Stations Pressure Air Temp Water Temp Dewpoint Dewpoint Depression Visibility Wind Speed Wind Dir Waves Ship Positions

Cathma

Last reported at 2015-Aug-01 22:25 UTC. Time now 2015-Aug-02 04:17 UTC.
Position N 57°34' E 017°48'.

Length 111 m; draft 6.1 m.

Type: Ship. MMSI: 306832000.

Date/timePositionNaut miles runAvg speedWind from/ knotsBaromVisibWave heightAir tempDewpointWater temp
2015-Aug-01 22:25N 57°34' E 017°48'7 8.0
2015-Aug-01 21:32N 57°27' E 017°46'8 8.0
2015-Aug-01 20:33N 57°20' E 017°41'9 8.8
2015-Aug-01 19:33N 57°11' E 017°35'9 9.1
2015-Aug-01 18:34N 57°03' E 017°29'9 8.9
2015-Aug-01 17:33N 56°55' E 017°23'125 8.9
2015-Aug-01 03:30N 55°06' E 015°36'9 9.0
2015-Aug-01 02:32N 54°58' E 015°28'9 9.0
2015-Aug-01 01:33N 54°51' E 015°19'74 8.2
2015-Jul-31 16:31N 53°42' E 014°28'8 8.5
2015-Jul-31 15:34N 53°35' E 014°36'7 6.9
2015-Jul-31 14:34N 53°29' E 014°37'4 3.6
2015-Jul-31 13:34N 53°25' E 014°35'0 0.0
2015-Jul-31 12:33N 53°25' E 014°35'0 0.0
2015-Jul-31 11:33N 53°25' E 014°35'0 0.0
2015-Jul-31 10:32N 53°25' E 014°35'0 0.0
2015-Jul-31 09:32N 53°25' E 014°35'0 0.0
2015-Jul-31 08:32N 53°25' E 014°35'0 0.0
2015-Jul-31 07:31N 53°25' E 014°35'0 0.0
2015-Jul-31 06:31N 53°25' E 014°35'0 0.0
2015-Jul-31 05:33N 53°25' E 014°35'0 0.0
2015-Jul-31 04:33N 53°25' E 014°35'0 0.0
2015-Jul-31 03:32N 53°25' E 014°35'0 0.0
2015-Jul-31 02:32N 53°25' E 014°35'0 0.0
2015-Jul-31 01:31N 53°25' E 014°35'0 0.0
2015-Jul-31 00:31N 53°25' E 014°35'0 0.0
2015-Jul-30 23:32N 53°25' E 014°35'0 0.0
2015-Jul-30 22:33N 53°25' E 014°35'0 0.0
2015-Jul-30 21:33N 53°25' E 014°35'0 0.0
2015-Jul-30 20:32N 53°25' E 014°35'0 0.0
2015-Jul-30 19:32N 53°25' E 014°35'0 0.0
2015-Jul-30 18:31N 53°25' E 014°35'0 0.0
2015-Jul-30 17:31N 53°25' E 014°35'0 0.0
2015-Jul-30 16:31N 53°25' E 014°35'0 0.0
2015-Jul-30 15:33N 53°25' E 014°35'0 0.0
2015-Jul-30 14:33N 53°25' E 014°35'0 0.0
2015-Jul-30 13:32N 53°25' E 014°35'0 0.0
2015-Jul-30 12:32N 53°25' E 014°35'0 0.0
2015-Jul-30 11:31N 53°25' E 014°35'0 0.0
2015-Jul-30 10:31N 53°25' E 014°35'0 0.0
2015-Jul-30 09:31N 53°25' E 014°35'0 0.0
2015-Jul-30 08:33N 53°25' E 014°35'0 0.0
2015-Jul-30 07:33N 53°25' E 014°35'0 0.0
2015-Jul-30 06:32N 53°25' E 014°35'0 0.0
2015-Jul-30 05:32N 53°25' E 014°35'0 0.0
2015-Jul-30 04:22N 53°25' E 014°35'0 0.0
2015-Jul-30 03:31N 53°25' E 014°35'0 0.0
2015-Jul-30 02:21N 53°25' E 014°35'0 0.0
2015-Jul-30 01:24N 53°25' E 014°35'0 0.0
2015-Jul-30 00:21N 53°25' E 014°35'0 0.0
2015-Jul-29 23:14N 53°25' E 014°35'0 0.0
2015-Jul-29 21:28N 53°25' E 014°35'0 0.0
2015-Jul-29 20:13N 53°25' E 014°35'0 0.0
2015-Jul-29 19:31N 53°25' E 014°35'0 0.0
2015-Jul-29 18:33N 53°25' E 014°35'0 0.0
2015-Jul-29 17:30N 53°25' E 014°35'0 0.0
2015-Jul-29 16:32N 53°25' E 014°35'0 0.0
2015-Jul-29 15:17N 53°25' E 014°35'0 0.0
2015-Jul-29 14:19N 53°25' E 014°35'0 0.0
2015-Jul-29 13:19N 53°25' E 014°35'0 0.0
2015-Jul-29 12:34N 53°25' E 014°35'0 0.0
2015-Jul-29 10:21N 53°25' E 014°35'0 0.0
2015-Jul-29 09:32N 53°25' E 014°35'0 0.0
2015-Jul-29 08:32N 53°25' E 014°35'0 0.0
2015-Jul-29 07:28N 53°25' E 014°35'0 0.0
2015-Jul-29 06:31N 53°25' E 014°35'0 0.0
2015-Jul-29 05:33N 53°25' E 014°35'0 0.0
2015-Jul-29 04:33N 53°25' E 014°35'0 0.0
2015-Jul-29 03:33N 53°25' E 014°35'0 0.0
2015-Jul-29 02:32N 53°25' E 014°35'0 0.0
2015-Jul-29 01:32N 53°25' E 014°35'0 0.0
2015-Jul-29 00:31N 53°25' E 014°35'0 0.0
2015-Jul-28 23:33N 53°25' E 014°35'0 0.0
2015-Jul-28 22:33N 53°25' E 014°35'0 0.0
2015-Jul-28 21:33N 53°25' E 014°35'0 0.0
2015-Jul-28 20:33N 53°25' E 014°35'0 0.0
2015-Jul-28 19:32N 53°25' E 014°35'0 0.0
2015-Jul-28 18:32N 53°25' E 014°35'0 0.2
2015-Jul-28 17:33N 53°25' E 014°35'4 4.0
2015-Jul-28 16:33N 53°29' E 014°37'9 9.0
2015-Jul-28 15:33N 53°38' E 014°35'1111.4
2015-Jul-28 14:33N 53°47' E 014°23'10210.1
2015-Jul-28 04:28N 55°14' E 012°53'910.3
2015-Jul-28 03:33N 55°18' E 012°38'1010.2
2015-Jul-28 02:34N 55°28' E 012°41'9 9.1
2015-Jul-28 01:33N 55°37' E 012°42'4 3.7
2015-Jul-28 00:33N 55°41' E 012°41'8 8.2
2015-Jul-27 23:34N 55°49' E 012°41'10 9.8
2015-Jul-27 22:33N 55°59' E 012°38'8 8.0
2015-Jul-27 21:33N 56°06' E 012°32'9 9.4
2015-Jul-27 20:33N 56°12' E 012°18'1010.1
2015-Jul-27 19:33N 56°18' E 012°03'2310.5
2015-Jul-27 17:22N 56°40' E 011°54'810.3
2015-Jul-27 16:33N 56°48' E 011°50'1110.6
2015-Jul-27 15:33N 56°58' E 011°43'1010.4
2015-Jul-27 14:33N 57°08' E 011°36'1010.2
2015-Jul-27 13:33N 57°18' E 011°31'8 8.3
2015-Jul-27 12:33N 57°26' E 011°34'1010.3
2015-Jul-27 11:33N 57°35' E 011°40'1 0.7
2015-Jul-27 10:32N 57°36' E 011°41'0 0.0
2015-Jul-27 09:32N 57°36' E 011°41'0 0.0
2015-Jul-27 08:31N 57°36' E 011°41'4 3.8
2015-Jul-27 07:33N 57°36' E 011°34'1111.4
2015-Jul-27 06:33N 57°43' E 011°17'1010.5
2015-Jul-27 05:33N 57°47' E 010°59'1010.4
2015-Jul-27 04:33N 57°47' E 010°39'38 9.5
2015-Jul-27 00:32N 57°31' E 009°34'9 8.9
2015-Jul-26 23:32N 57°27' E 009°19'250 6.8
2015-Jul-25 10:32N 54°11' E 004°44'6 5.8
2015-Jul-25 09:33N 54°05' E 004°41'7 6.8
2015-Jul-25 08:32N 53°59' E 004°37'1010.2
2015-Jul-25 07:33N 53°50' E 004°28'79 7.1
2015-Jul-24 20:31N 52°46' E 003°12'9 7.7
2015-Jul-24 19:21N 52°38' E 003°05'7 7.7
2015-Jul-24 18:24N 52°32' E 002°60'6 7.3
2015-Jul-24 17:32N 52°26' E 002°55'7 6.8
2015-Jul-24 16:33N 52°20' E 002°50'6 6.4
2015-Jul-24 15:33N 52°14' E 002°45'9 6.1
2015-Jul-24 14:08N 52°06' E 002°41'5 6.2
2015-Jul-24 13:23N 52°01' E 002°40'5 6.4
2015-Jul-24 12:31N 51°56' E 002°39'38 7.6
2015-Jul-24 07:33N 51°25' E 002°05'9 9.2
2015-Jul-24 06:33N 51°18' E 001°55'1010.0
2015-Jul-24 05:33N 51°10' E 001°45'1010.5
2015-Jul-24 04:33N 51°01' E 001°36'96 8.0
2015-Jul-23 16:33N 49°50' W 000°04'8 8.3
2015-Jul-23 15:33N 49°42' W 000°09'8 8.0
2015-Jul-23 14:33N 49°34' W 000°12'6 5.4
2015-Jul-23 13:32N 49°29' W 000°09'0 0.0
2015-Jul-23 12:31N 49°29' W 000°09'0 0.0
2015-Jul-23 11:28N 49°29' W 000°09'0 0.0
2015-Jul-23 10:33N 49°29' W 000°09'0 0.0
2015-Jul-23 09:33N 49°29' W 000°09'0 0.0
2015-Jul-23 08:32N 49°29' W 000°09'0 0.0
2015-Jul-23 07:32N 49°29' W 000°09'0 0.0
2015-Jul-23 06:32N 49°29' W 000°09'0 0.0
2015-Jul-23 05:31N 49°29' W 000°09'0 0.0
2015-Jul-23 04:28N 49°29' W 000°09'0 0.0
2015-Jul-23 03:33N 49°29' W 000°09'0 0.0
2015-Jul-23 02:33N 49°29' W 000°09'0 0.0
2015-Jul-23 01:29N 49°29' W 000°09'0 0.0
2015-Jul-23 00:32N 49°29' W 000°09'0 0.0
2015-Jul-22 23:32N 49°29' W 000°09'0 0.0
2015-Jul-22 22:31N 49°29' W 000°09'  

Dump ship's entire track history